createdAt,value
2024-02-29T00:00:35.123Z,29.8050
2024-02-29T00:01:37.173Z,29.8120
2024-02-29T00:02:39.302Z,29.8000
2024-02-29T00:03:41.402Z,29.7990
2024-02-29T00:04:43.568Z,29.7710
2024-02-29T00:05:45.798Z,29.7930
2024-02-29T00:06:48.087Z,29.7990
2024-02-29T00:07:50.230Z,29.7820
2024-02-29T00:08:52.464Z,29.7770
2024-02-29T00:09:54.599Z,29.7670
2024-02-29T00:10:56.772Z,29.7590
2024-02-29T00:11:58.949Z,29.7330
2024-02-29T00:13:01.186Z,29.7310
2024-02-29T00:14:03.322Z,29.7640
2024-02-29T00:15:05.526Z,29.7590
2024-02-29T00:16:07.823Z,29.7370
2024-02-29T00:17:09.891Z,29.7480
2024-02-29T00:18:12.101Z,29.7260
2024-02-29T00:20:40.035Z,29.5880
2024-02-29T00:21:42.355Z,29.5060
2024-02-29T00:22:44.348Z,29.4410
2024-02-29T00:23:46.480Z,29.4050
2024-02-29T00:24:48.656Z,29.3620
2024-02-29T00:25:50.769Z,29.3500
2024-02-29T00:26:52.972Z,29.3340
2024-02-29T00:27:53.050Z,29.3240
2024-02-29T00:28:55.185Z,29.3300
2024-02-29T00:29:57.317Z,29.3240
2024-02-29T00:30:59.505Z,29.3130
2024-02-29T00:32:01.682Z,29.3080
2024-02-29T00:33:03.939Z,29.3020
2024-02-29T00:34:06.138Z,29.3300
2024-02-29T00:35:08.252Z,29.3080
2024-02-29T00:36:10.762Z,29.2970
2024-02-29T00:37:12.726Z,29.2750
2024-02-29T00:38:14.784Z,29.2680
2024-02-29T00:39:17.019Z,29.2630
2024-02-29T00:40:19.276Z,29.2480
2024-02-29T00:41:21.447Z,29.2420
2024-02-29T00:42:23.664Z,29.2480
2024-02-29T00:43:25.907Z,29.2520
2024-02-29T00:44:28.061Z,29.2300
2024-02-29T00:45:30.230Z,29.2240
2024-02-29T00:46:32.443Z,29.2240
2024-02-29T00:47:34.678Z,29.2120
2024-02-29T00:48:36.834Z,29.2200
2024-02-29T00:49:39.143Z,29.2240
2024-02-29T00:50:39.330Z,29.2240
2024-02-29T00:51:41.449Z,29.2120
2024-02-29T00:52:43.625Z,29.2070
2024-02-29T00:53:45.817Z,29.2120
2024-02-29T00:54:48.066Z,29.2070
2024-02-29T00:55:50.199Z,29.2240
2024-02-29T00:56:52.376Z,29.2120
2024-02-29T00:57:54.629Z,29.1980
2024-02-29T00:58:56.774Z,29.1810
2024-02-29T00:59:58.959Z,29.1810
2024-02-29T01:01:01.196Z,29.1980
2024-02-29T01:02:03.402Z,29.1850
2024-02-29T01:03:05.466Z,29.1900
2024-02-29T01:04:07.917Z,29.1750
2024-02-29T01:05:09.861Z,29.1750
2024-02-29T01:06:12.007Z,29.1640
2024-02-29T01:07:14.238Z,29.1420
2024-02-29T01:08:16.309Z,29.1300
2024-02-29T01:09:16.319Z,29.1530
2024-02-29T01:10:18.596Z,29.1480
2024-02-29T01:11:20.793Z,29.1300
2024-02-29T01:12:22.924Z,29.1290
2024-02-29T01:13:25.104Z,29.1300
2024-02-29T01:14:27.346Z,29.1300
2024-02-29T01:15:29.606Z,29.1480
2024-02-29T01:16:31.722Z,29.1290
2024-02-29T01:17:33.887Z,29.1180
2024-02-29T01:18:36.097Z,29.1180
2024-02-29T01:19:38.270Z,29.1120
2024-02-29T01:20:40.500Z,29.1080
2024-02-29T01:21:42.751Z,29.1030
2024-02-29T01:22:44.932Z,29.1190
2024-02-29T01:23:47.101Z,29.0860
2024-02-29T01:24:49.369Z,29.1030
2024-02-29T01:25:49.494Z,29.0690
2024-02-29T01:26:51.712Z,29.0800
2024-02-29T01:27:53.903Z,29.0890
2024-02-29T01:28:56.052Z,29.0800
2024-02-29T01:29:58.252Z,29.0630
2024-02-29T01:31:00.524Z,29.0780
2024-02-29T01:32:12.013Z,29.0780
2024-02-29T01:33:04.960Z,29.0780
2024-02-29T01:34:07.239Z,29.0670
2024-02-29T01:35:09.432Z,29.0670
2024-02-29T01:36:11.698Z,29.0670
2024-02-29T01:37:13.975Z,29.0450
2024-02-29T01:38:14.006Z,29.0620
2024-02-29T01:39:16.285Z,29.0620
2024-02-29T01:40:18.519Z,29.0560
2024-02-29T01:41:20.746Z,29.0390
2024-02-29T01:42:22.957Z,29.0280
2024-02-29T01:43:25.236Z,29.0220
2024-02-29T01:44:27.456Z,29.0560
2024-02-29T01:45:29.784Z,29.0330
2024-02-29T01:46:31.906Z,29.0280
2024-02-29T01:47:34.160Z,29.0220
2024-02-29T01:48:36.352Z,29.0260
2024-02-29T01:49:38.577Z,29.0060
2024-02-29T01:50:38.619Z,29.0060
2024-02-29T01:51:40.845Z,28.9950
2024-02-29T01:52:43.002Z,29.0000
2024-02-29T01:53:45.236Z,28.9890
2024-02-29T01:54:47.591Z,28.9920
2024-02-29T01:55:49.630Z,28.9950
2024-02-29T01:56:51.847Z,28.9830
2024-02-29T01:57:54.019Z,29.0280
2024-02-29T01:58:56.114Z,29.0060
2024-02-29T01:59:58.200Z,28.9950
2024-02-29T02:01:00.465Z,28.9660
2024-02-29T02:02:02.688Z,28.9770
2024-02-29T02:03:04.775Z,28.9770
2024-02-29T02:04:07.046Z,28.9610
2024-02-29T02:05:09.215Z,28.9610
2024-02-29T02:06:11.409Z,28.9720
2024-02-29T02:07:12.561Z,29.0100
2024-02-29T02:08:14.693Z,29.1170
2024-02-29T02:09:16.880Z,29.2010
2024-02-29T02:10:19.132Z,29.2210
2024-02-29T02:11:21.267Z,29.2670
2024-02-29T02:12:23.444Z,29.2660
2024-02-29T02:13:25.602Z,29.2990
2024-02-29T02:14:27.831Z,29.2930
2024-02-29T02:15:27.881Z,29.3110
2024-02-29T02:16:30.123Z,29.3110
2024-02-29T02:17:32.347Z,29.3160
2024-02-29T02:18:34.580Z,29.3160
2024-02-29T02:19:36.726Z,29.2990
2024-02-29T02:20:36.788Z,29.3160
2024-02-29T02:21:39.036Z,29.3050
2024-02-29T02:22:41.257Z,29.3050
2024-02-29T02:23:43.426Z,29.3110
2024-02-29T02:24:45.674Z,29.3110
2024-02-29T02:25:45.744Z,29.3050
2024-02-29T02:26:47.985Z,29.3050
2024-02-29T02:27:50.270Z,29.2930
2024-02-29T02:28:52.455Z,29.3110
2024-02-29T02:29:54.680Z,29.3160
2024-02-29T02:30:56.878Z,29.2820
2024-02-29T02:31:59.056Z,29.2820
2024-02-29T02:33:01.262Z,29.2880
2024-02-29T02:34:03.361Z,29.2710
2024-02-29T02:35:05.671Z,29.2710
2024-02-29T02:36:07.631Z,29.2550
2024-02-29T02:37:09.939Z,29.2660
2024-02-29T02:38:11.984Z,29.2710
2024-02-29T02:39:14.150Z,29.2710
2024-02-29T02:40:16.312Z,29.2860
2024-02-29T02:41:18.438Z,29.2860
2024-02-29T02:42:20.610Z,29.2780
2024-02-29T02:43:22.806Z,29.2750
2024-02-29T02:44:24.926Z,29.2620
2024-02-29T02:45:27.084Z,29.2730
2024-02-29T02:46:29.262Z,29.2670
2024-02-29T02:47:31.480Z,29.2620
2024-02-29T02:48:33.665Z,29.2670
2024-02-29T02:49:35.751Z,29.2560
2024-02-29T02:50:37.952Z,29.2620
2024-02-29T02:51:40.072Z,29.2510
2024-02-29T02:52:42.205Z,29.2560
2024-02-29T02:53:44.444Z,29.2620
2024-02-29T02:54:46.628Z,29.2340
2024-02-29T02:55:48.813Z,29.2360
2024-02-29T02:56:51.012Z,29.2360
2024-02-29T02:57:53.219Z,29.2360
2024-02-29T02:58:55.428Z,29.2190
2024-02-29T02:59:57.607Z,29.2170
2024-02-29T03:00:59.848Z,29.2190
2024-02-29T03:02:02.040Z,29.2250
2024-02-29T03:03:04.362Z,29.2230
2024-02-29T03:04:06.496Z,29.2250
2024-02-29T03:05:08.578Z,29.2030
2024-02-29T03:06:10.793Z,29.1850
2024-02-29T03:07:13.082Z,29.1850
2024-02-29T03:08:15.159Z,29.1910
2024-02-29T03:09:17.375Z,29.1960
2024-02-29T03:10:19.543Z,29.1810
2024-02-29T03:11:21.749Z,29.1930
2024-02-29T03:12:23.887Z,29.1700
2024-02-29T03:13:26.104Z,29.1760
2024-02-29T03:14:28.319Z,29.1630
2024-02-29T03:15:30.553Z,29.1740
2024-02-29T03:16:32.721Z,29.1850
2024-02-29T03:17:34.953Z,29.1740
2024-02-29T03:18:37.342Z,29.1520
2024-02-29T03:19:39.353Z,29.1690
2024-02-29T03:20:41.492Z,29.1690
2024-02-29T03:21:43.618Z,29.1630
2024-02-29T03:22:45.723Z,29.1520
2024-02-29T03:23:47.868Z,29.1520
2024-02-29T03:24:50.087Z,29.1390
2024-02-29T03:25:52.190Z,29.1440
2024-02-29T03:26:54.291Z,29.1550
2024-02-29T03:27:56.454Z,29.1500
2024-02-29T03:28:58.621Z,29.1440
2024-02-29T03:30:00.746Z,29.1500
2024-02-29T03:31:02.983Z,29.1230
2024-02-29T03:32:05.135Z,29.1440
2024-02-29T03:33:07.393Z,29.1280
2024-02-29T03:34:09.637Z,29.1520
2024-02-29T03:35:11.842Z,29.1230
2024-02-29T03:36:14.076Z,29.1230
2024-02-29T03:37:16.422Z,29.0990
2024-02-29T03:38:18.581Z,29.1170
2024-02-29T03:39:20.861Z,29.1120
2024-02-29T03:40:23.126Z,29.1120
2024-02-29T03:41:25.284Z,29.1170
2024-02-29T03:42:27.481Z,29.1060
2024-02-29T03:43:29.716Z,29.0940
2024-02-29T03:44:31.956Z,29.1060
2024-02-29T03:45:34.243Z,29.1040
2024-02-29T03:46:36.452Z,29.0980
2024-02-29T03:47:38.815Z,29.0830
2024-02-29T03:48:41.010Z,29.0830
2024-02-29T03:49:43.264Z,29.0720
2024-02-29T03:50:45.505Z,29.0940
2024-02-29T03:52:50.037Z,28.9820
2024-02-29T03:53:52.185Z,28.9000
2024-02-29T03:54:54.349Z,28.8230
2024-02-29T03:55:56.491Z,28.7680
2024-02-29T03:56:56.521Z,28.7310
2024-02-29T03:57:58.927Z,28.7310
2024-02-29T03:59:00.840Z,28.7280
2024-02-29T04:00:03.034Z,28.7120
2024-02-29T04:01:05.289Z,28.6750
2024-02-29T04:02:07.485Z,28.6750
2024-02-29T04:03:09.648Z,28.6860
2024-02-29T04:04:11.905Z,28.6800
2024-02-29T04:05:14.008Z,28.6800
2024-02-29T04:06:16.184Z,28.6640
2024-02-29T04:07:18.453Z,28.6580
2024-02-29T04:08:20.621Z,28.6520
2024-02-29T04:09:22.810Z,28.6640
2024-02-29T04:10:24.976Z,28.6460
2024-02-29T04:11:27.139Z,28.6460
2024-02-29T04:12:29.271Z,28.6520
2024-02-29T04:13:31.421Z,28.6520
2024-02-29T04:14:33.536Z,28.6410
2024-02-29T04:15:35.731Z,28.6250
2024-02-29T04:16:37.852Z,28.7130
2024-02-29T04:17:40.013Z,30.9000
2024-02-29T04:18:42.201Z,31.1800
2024-02-29T04:19:44.310Z,31.1550
2024-02-29T04:20:46.525Z,30.9490
2024-02-29T04:21:48.739Z,31.1740
2024-02-29T04:22:48.724Z,31.0440
2024-02-29T04:23:50.892Z,31.0700
2024-02-29T04:24:53.018Z,31.1910
2024-02-29T04:25:55.068Z,31.2690
2024-02-29T04:26:57.148Z,31.2780
2024-02-29T04:27:59.324Z,31.3970
2024-02-29T04:29:01.358Z,31.5230
2024-02-29T04:30:03.416Z,31.6930
2024-02-29T04:31:05.571Z,31.7560
2024-02-29T04:32:07.605Z,31.7220
2024-02-29T04:33:09.718Z,31.6970
2024-02-29T04:34:11.811Z,31.7900
2024-02-29T04:35:13.859Z,31.9540
2024-02-29T04:36:13.815Z,31.9940
2024-02-29T04:37:15.918Z,32.0610
2024-02-29T04:38:17.939Z,32.0320
2024-02-29T04:39:20.079Z,32.3380
2024-02-29T04:40:22.178Z,32.2680
2024-02-29T04:41:24.227Z,32.3510
2024-02-29T04:42:26.307Z,32.2220
2024-02-29T04:43:28.386Z,32.3750
2024-02-29T04:44:30.555Z,32.4020
2024-02-29T04:45:32.662Z,32.2270
2024-02-29T04:46:34.792Z,32.2530
2024-02-29T04:47:34.753Z,30.4110
2024-02-29T04:48:36.863Z,30.2830
2024-02-29T04:49:39.033Z,30.3750
2024-02-29T04:50:41.204Z,30.4970
2024-02-29T04:51:43.476Z,30.4370
2024-02-29T04:52:45.619Z,30.4530
2024-02-29T04:53:47.804Z,30.3860
2024-02-29T04:54:50.088Z,30.2790
2024-02-29T04:55:52.231Z,30.3090
2024-02-29T04:56:54.375Z,30.2610
2024-02-29T04:57:56.578Z,30.2830
2024-02-29T04:58:58.747Z,30.3390
2024-02-29T05:00:01.001Z,31.1650
2024-02-29T05:01:03.240Z,31.7160
2024-02-29T05:02:07.378Z,31.8900
2024-02-29T05:03:07.507Z,31.8960
2024-02-29T05:04:09.824Z,32.0290
2024-02-29T05:05:11.940Z,32.1180
2024-02-29T05:06:11.958Z,32.2080
2024-02-29T05:07:14.272Z,32.3770
2024-02-29T05:08:16.362Z,32.4450
2024-02-29T05:09:18.595Z,32.5440
2024-02-29T05:10:20.890Z,32.6540
2024-02-29T05:11:23.016Z,32.7580
2024-02-29T05:12:25.172Z,32.7840
2024-02-29T05:13:27.382Z,32.8480
2024-02-29T05:14:29.583Z,32.8730
2024-02-29T05:15:31.911Z,32.9270
2024-02-29T05:16:33.944Z,32.9470
2024-02-29T05:17:36.157Z,33.0020
2024-02-29T05:18:38.371Z,33.0220
2024-02-29T05:19:40.498Z,33.0590
2024-02-29T05:20:42.688Z,33.1370
2024-02-29T05:21:44.939Z,33.1280
2024-02-29T05:22:47.047Z,33.1440
2024-02-29T05:23:49.191Z,33.1010
2024-02-29T05:24:51.397Z,33.1800
2024-02-29T05:25:53.564Z,33.1220
2024-02-29T05:26:55.738Z,33.1520
2024-02-29T05:28:41.038Z,33.2430
2024-02-29T05:29:43.111Z,33.2310
2024-02-29T05:30:45.310Z,33.2020
2024-02-29T05:31:47.484Z,33.1890
2024-02-29T05:32:47.583Z,33.1950
2024-02-29T05:33:49.739Z,33.1950
2024-02-29T05:34:51.878Z,33.1920
2024-02-29T05:35:54.019Z,33.2030
2024-02-29T05:36:56.211Z,33.2090
2024-02-29T05:37:59.675Z,33.2550
2024-02-29T05:39:00.469Z,33.2110
2024-02-29T05:40:02.712Z,33.1640
2024-02-29T05:41:04.809Z,33.1580
2024-02-29T05:42:06.919Z,33.1750
2024-02-29T05:43:09.044Z,33.1510
2024-02-29T05:44:11.199Z,33.2010
2024-02-29T05:45:13.384Z,33.1180
2024-02-29T05:46:15.831Z,33.1350
2024-02-29T05:47:17.806Z,33.1630
2024-02-29T05:48:19.971Z,33.1740
2024-02-29T05:49:22.257Z,33.1910
2024-02-29T05:50:24.375Z,33.1620
2024-02-29T05:51:26.571Z,33.2310
2024-02-29T05:52:28.788Z,33.2320
2024-02-29T05:53:30.978Z,33.2250
2024-02-29T05:54:33.155Z,30.6630
2024-02-29T05:55:35.236Z,30.6180
2024-02-29T05:56:37.421Z,31.0700
2024-02-29T05:57:39.662Z,31.5210
2024-02-29T05:58:41.781Z,31.6150
2024-02-29T05:59:44.007Z,31.7530
2024-02-29T06:00:46.309Z,31.7710
2024-02-29T06:01:48.507Z,31.8490
2024-02-29T06:02:50.679Z,31.8020
2024-02-29T06:03:50.751Z,31.8190
2024-02-29T06:04:53.020Z,31.7620
2024-02-29T06:05:55.268Z,31.6610
2024-02-29T06:06:57.464Z,31.7520
2024-02-29T06:07:59.763Z,31.6560
2024-02-29T06:09:02.046Z,31.6560
2024-02-29T06:10:04.378Z,31.5470
2024-02-29T06:11:04.451Z,31.4990
2024-02-29T06:12:06.729Z,31.9840
2024-02-29T06:13:09.140Z,32.1160
2024-02-29T06:14:11.342Z,32.0680
2024-02-29T06:15:13.586Z,32.1080
2024-02-29T06:16:15.860Z,32.1460
2024-02-29T06:17:18.016Z,32.1850
2024-02-29T06:18:20.272Z,32.2770
2024-02-29T06:19:22.601Z,32.3360
2024-02-29T06:20:22.669Z,32.3570
2024-02-29T06:21:24.937Z,32.4030
2024-02-29T06:22:27.297Z,32.4520
2024-02-29T06:23:29.489Z,32.5400
2024-02-29T06:24:31.756Z,32.5880
2024-02-29T06:25:33.999Z,32.6410
2024-02-29T06:26:36.259Z,32.2470
2024-02-29T06:27:38.552Z,32.2110
2024-02-29T06:28:38.729Z,32.3210
2024-02-29T06:29:40.983Z,32.4330
2024-02-29T06:30:43.311Z,32.5300
2024-02-29T06:31:45.555Z,32.6040
2024-02-29T06:32:47.938Z,32.6340
2024-02-29T06:33:50.123Z,32.6450
2024-02-29T06:34:52.228Z,32.6670
2024-02-29T06:35:52.370Z,32.6780
2024-02-29T06:36:54.702Z,32.7090
2024-02-29T06:37:56.974Z,32.7200
2024-02-29T06:38:59.208Z,32.7310
2024-02-29T06:40:01.919Z,32.7550
2024-02-29T06:41:03.768Z,32.7370
2024-02-29T06:42:06.019Z,32.7550
2024-02-29T06:43:08.297Z,32.7780
2024-02-29T06:44:10.576Z,32.7620
2024-02-29T06:45:10.692Z,32.7740
2024-02-29T06:46:13.007Z,32.7740
2024-02-29T06:47:15.266Z,32.7510
2024-02-29T06:48:17.529Z,32.7650
2024-02-29T06:49:19.843Z,32.7510
2024-02-29T06:50:21.968Z,32.7710
2024-02-29T06:51:24.186Z,32.7770
2024-02-29T06:52:26.396Z,32.7770
2024-02-29T06:53:28.597Z,32.7820
2024-02-29T06:54:30.825Z,32.7710
2024-02-29T06:55:30.912Z,32.7770
2024-02-29T06:56:33.158Z,32.7460
2024-02-29T06:57:35.455Z,32.7630
2024-02-29T06:58:37.717Z,32.7690
2024-02-29T06:59:40.068Z,32.7550
2024-02-29T07:00:42.413Z,32.7480
2024-02-29T07:01:44.711Z,32.7250
2024-02-29T07:02:46.946Z,32.7310
2024-02-29T07:03:47.167Z,32.7160
2024-02-29T07:04:49.440Z,32.6950
2024-02-29T07:05:51.696Z,32.6740
2024-02-29T07:06:54.019Z,32.6570
2024-02-29T07:07:56.273Z,32.6460
2024-02-29T07:08:56.401Z,32.6680
2024-02-29T07:09:58.750Z,32.6300
2024-02-29T07:11:02.468Z,32.6540
2024-02-29T07:12:03.196Z,32.6360
2024-02-29T07:13:05.534Z,32.6410
2024-02-29T07:14:07.687Z,32.5860
2024-02-29T07:15:09.908Z,32.5460
2024-02-29T07:16:12.117Z,32.5310
2024-02-29T07:17:14.337Z,32.5100
2024-02-29T07:18:16.635Z,32.5040
2024-02-29T07:19:16.780Z,32.5490
2024-02-29T07:20:19.089Z,32.5200
2024-02-29T07:21:21.185Z,32.4510
2024-02-29T07:22:23.479Z,32.4620
2024-02-29T07:23:25.672Z,32.4650
2024-02-29T07:24:27.875Z,32.4470
2024-02-29T07:25:30.156Z,32.4040
2024-02-29T07:26:32.389Z,32.3680
2024-02-29T07:27:34.674Z,32.3340
2024-02-29T07:28:36.862Z,32.3080
2024-02-29T07:29:39.144Z,32.2720
2024-02-29T07:30:39.285Z,32.2670
2024-02-29T07:31:41.467Z,32.2500
2024-02-29T07:32:43.713Z,32.2220
2024-02-29T07:33:46.023Z,32.2190
2024-02-29T07:34:48.268Z,32.1790
2024-02-29T07:35:50.583Z,32.1680
2024-02-29T07:36:52.881Z,32.1530
2024-02-29T07:37:55.316Z,32.1350
2024-02-29T07:38:57.385Z,32.1290
2024-02-29T07:39:59.687Z,32.1000
2024-02-29T07:41:01.892Z,32.0720
2024-02-29T07:42:04.209Z,32.0570
2024-02-29T07:43:06.554Z,32.0400
2024-02-29T07:44:08.737Z,32.0220
2024-02-29T07:45:11.007Z,32.0280
2024-02-29T07:46:11.216Z,32.0070
2024-02-29T07:47:13.388Z,32.0100
2024-02-29T07:48:15.775Z,31.9860
2024-02-29T07:49:18.039Z,31.9830
2024-02-29T07:50:20.223Z,31.9650
2024-02-29T07:51:22.530Z,31.9320
2024-02-29T07:52:24.842Z,31.9270
2024-02-29T07:53:27.048Z,31.9340
2024-02-29T07:54:27.323Z,31.9280
2024-02-29T07:55:29.456Z,31.9270
2024-02-29T07:56:31.762Z,31.8970
2024-02-29T07:57:34.076Z,31.8970
2024-02-29T07:58:36.293Z,31.8810
2024-02-29T07:59:38.582Z,31.8700
2024-02-29T08:00:40.902Z,31.8750
2024-02-29T08:03:02.519Z,31.9160
2024-02-29T08:04:04.602Z,31.8810
2024-02-29T08:05:06.729Z,31.8700
2024-02-29T08:06:08.882Z,31.8600
2024-02-29T08:07:11.099Z,31.8270
2024-02-29T08:08:13.186Z,31.8320
2024-02-29T08:09:15.370Z,31.8270
2024-02-29T08:10:17.946Z,31.8170
2024-02-29T08:11:19.812Z,31.8060
2024-02-29T08:12:21.961Z,31.8000
2024-02-29T08:13:24.202Z,31.7820
2024-02-29T08:14:26.337Z,31.8160
2024-02-29T08:15:28.526Z,31.8240
2024-02-29T08:16:30.763Z,31.8590
2024-02-29T08:17:31.932Z,31.9260
2024-02-29T08:18:34.256Z,32.0330
2024-02-29T08:19:36.278Z,32.1520
2024-02-29T08:20:38.500Z,32.1830
2024-02-29T08:21:41.028Z,32.1940
2024-02-29T08:22:42.899Z,32.2260
2024-02-29T08:23:45.072Z,32.2310
2024-02-29T08:24:47.313Z,32.2580
2024-02-29T08:25:49.467Z,32.2420
2024-02-29T08:26:51.655Z,32.2600
2024-02-29T08:27:53.876Z,32.2400
2024-02-29T08:28:56.043Z,32.2220
2024-02-29T08:29:58.100Z,32.2340
2024-02-29T08:31:00.341Z,32.2340
2024-02-29T08:32:02.538Z,32.2510
2024-02-29T08:33:04.778Z,32.2830
2024-02-29T08:34:06.831Z,32.2810
2024-02-29T08:35:09.019Z,32.2980
2024-02-29T08:36:11.172Z,32.2690
2024-02-29T08:37:13.533Z,32.2870
2024-02-29T08:38:15.566Z,32.2950
2024-02-29T08:39:15.550Z,32.2990
2024-02-29T08:40:17.828Z,32.3450
2024-02-29T08:41:19.929Z,32.3790
2024-02-29T08:42:22.084Z,32.4400
2024-02-29T08:43:24.272Z,32.4930
2024-02-29T08:44:26.488Z,32.5940
2024-02-29T08:45:26.509Z,32.6540
2024-02-29T08:46:28.815Z,32.7440
2024-02-29T08:47:30.944Z,32.8250
2024-02-29T08:48:33.193Z,32.8550
2024-02-29T08:49:35.392Z,32.9130
2024-02-29T08:50:35.443Z,32.9570
2024-02-29T08:51:37.687Z,32.9680
2024-02-29T08:52:39.874Z,33.0240
2024-02-29T08:53:42.114Z,33.0450
2024-02-29T08:54:44.364Z,33.0510
2024-02-29T08:55:44.359Z,33.0740
2024-02-29T08:56:46.571Z,33.1190
2024-02-29T08:57:48.779Z,33.1410
2024-02-29T08:58:50.905Z,33.1420
2024-02-29T08:59:53.039Z,33.1520
2024-02-29T09:00:55.240Z,33.1900
2024-02-29T09:01:57.372Z,33.2010
2024-02-29T09:02:59.432Z,33.2250
2024-02-29T09:04:01.580Z,33.2830
2024-02-29T09:05:03.755Z,33.2870
2024-02-29T09:06:05.921Z,33.2990
2024-02-29T09:07:08.180Z,33.3310
2024-02-29T09:08:08.180Z,33.3650
2024-02-29T09:09:10.393Z,33.3700
2024-02-29T09:10:12.607Z,33.3800
2024-02-29T09:11:14.847Z,33.4150
2024-02-29T09:12:17.002Z,33.4270
2024-02-29T09:13:29.819Z,33.4570
2024-02-29T09:14:21.474Z,33.4680
2024-02-29T09:15:23.742Z,33.4590
2024-02-29T09:16:25.942Z,33.4780
2024-02-29T09:17:28.155Z,33.4890
2024-02-29T09:18:28.099Z,33.5270
2024-02-29T09:19:30.431Z,33.5310
2024-02-29T09:20:32.509Z,33.5450
2024-02-29T09:21:34.745Z,33.5520
2024-02-29T09:22:36.958Z,33.5450
2024-02-29T09:23:37.059Z,33.5390
2024-02-29T09:24:39.313Z,33.5450
2024-02-29T09:25:41.500Z,33.5420
2024-02-29T09:26:43.722Z,33.5690
2024-02-29T09:27:46.010Z,33.5740
2024-02-29T09:28:48.229Z,33.5850
2024-02-29T09:29:50.514Z,33.6010
2024-02-29T09:30:52.781Z,33.5950
2024-02-29T09:31:55.000Z,33.6230
2024-02-29T09:32:57.310Z,33.6010
2024-02-29T09:33:59.528Z,33.5900
2024-02-29T09:35:01.807Z,33.6350
2024-02-29T09:36:03.954Z,33.6410
2024-02-29T09:37:06.414Z,33.6350
2024-02-29T09:38:08.449Z,33.6580
2024-02-29T09:39:10.691Z,33.6350
2024-02-29T09:40:10.859Z,33.6580
2024-02-29T09:41:25.566Z,33.6230
2024-02-29T09:42:15.866Z,33.6580
2024-02-29T09:43:17.617Z,33.6910
2024-02-29T09:44:19.892Z,33.7020
2024-02-29T09:45:24.309Z,33.7060
2024-02-29T09:46:24.415Z,33.7060
2024-02-29T09:47:26.654Z,33.7080
2024-02-29T09:48:26.849Z,33.6970
2024-02-29T09:49:29.103Z,33.6910
2024-02-29T09:50:31.400Z,33.7080
2024-02-29T09:51:33.660Z,33.7080
2024-02-29T09:52:35.898Z,33.7430
2024-02-29T09:53:38.197Z,33.7300
2024-02-29T09:54:40.407Z,33.7220
2024-02-29T09:55:42.675Z,33.7080
2024-02-29T09:56:44.960Z,33.3100
2024-02-29T09:57:47.183Z,33.3740
2024-02-29T09:58:49.440Z,33.4810
2024-02-29T09:59:51.623Z,33.5230
2024-02-29T10:00:53.952Z,33.6740
2024-02-29T10:01:56.415Z,33.6430
2024-02-29T10:02:58.429Z,33.6100
2024-02-29T10:03:58.574Z,33.5410
2024-02-29T10:05:00.754Z,33.5410
2024-02-29T10:06:02.962Z,33.4970
2024-02-29T10:07:05.199Z,33.4470
2024-02-29T10:08:07.309Z,33.4250
2024-02-29T10:09:07.475Z,33.4380
2024-02-29T10:10:09.780Z,33.3900
2024-02-29T10:11:11.965Z,33.3850
2024-02-29T10:12:14.253Z,33.3730
2024-02-29T10:13:16.524Z,33.3400
2024-02-29T10:14:18.774Z,33.3330
2024-02-29T10:15:20.975Z,33.2990
2024-02-29T10:16:24.952Z,33.2890
2024-02-29T10:17:23.491Z,33.3240
2024-02-29T10:18:25.502Z,33.2360
2024-02-29T10:19:27.856Z,33.1150
2024-02-29T10:20:30.044Z,33.0130
2024-02-29T10:21:32.312Z,32.9840
2024-02-29T10:22:34.611Z,32.9730
2024-02-29T10:23:36.820Z,33.0820
2024-02-29T10:24:39.199Z,33.1560
2024-02-29T10:25:41.293Z,33.1090
2024-02-29T10:26:43.535Z,33.0730
2024-02-29T10:27:45.659Z,32.9400
2024-02-29T10:28:47.859Z,32.8610
2024-02-29T10:29:50.033Z,32.9180
2024-02-29T10:31:48.032Z,32.6480
2024-02-29T10:32:50.188Z,32.4290
2024-02-29T10:33:52.287Z,32.2670
2024-02-29T10:34:54.449Z,32.1140
2024-02-29T10:35:56.619Z,31.9700
2024-02-29T10:36:58.837Z,31.8660
2024-02-29T10:37:58.824Z,31.8280
2024-02-29T10:39:00.994Z,31.8460
2024-02-29T10:40:07.374Z,31.7600
2024-02-29T10:41:05.348Z,31.7810
2024-02-29T10:42:07.492Z,31.7640
2024-02-29T10:43:09.682Z,31.8390
2024-02-29T10:44:11.812Z,31.8160
2024-02-29T10:45:13.995Z,31.8160
2024-02-29T10:46:16.295Z,31.8320
2024-02-29T10:47:18.366Z,31.8600
2024-02-29T10:48:20.533Z,31.8380
2024-02-29T10:49:22.726Z,31.8430
2024-02-29T10:50:24.922Z,31.8170
2024-02-29T10:51:27.502Z,31.8060
2024-02-29T10:52:29.315Z,31.7760
2024-02-29T10:53:31.401Z,31.7840
2024-02-29T10:54:33.596Z,31.7490
2024-02-29T10:55:35.759Z,31.7330
2024-02-29T10:56:37.943Z,31.7210
2024-02-29T10:57:40.206Z,31.6940
2024-02-29T10:58:42.303Z,31.7120
2024-02-29T10:59:44.481Z,31.7180
2024-02-29T11:00:46.790Z,31.7710
2024-02-29T11:01:49.640Z,31.7770
2024-02-29T11:02:51.649Z,31.8270
2024-02-29T11:03:53.198Z,31.8680
2024-02-29T11:04:55.345Z,31.9170
2024-02-29T11:05:57.490Z,31.9460
2024-02-29T11:06:59.729Z,31.9550
2024-02-29T11:08:01.846Z,31.9900
2024-02-29T11:09:04.030Z,32.0170
2024-02-29T11:10:04.148Z,32.0380
2024-02-29T11:11:06.399Z,32.0580
2024-02-29T11:12:08.602Z,32.1080
2024-02-29T11:13:10.872Z,32.1460
2024-02-29T11:14:12.962Z,32.1460
2024-02-29T11:15:15.145Z,32.1830
2024-02-29T11:16:17.387Z,32.2030
2024-02-29T11:17:19.488Z,32.2510
2024-02-29T11:18:21.651Z,32.3090
2024-02-29T11:19:23.906Z,32.2890
2024-02-29T11:20:26.007Z,32.3400
2024-02-29T11:21:28.154Z,32.3630
2024-02-29T11:22:30.344Z,32.3650
2024-02-29T11:23:32.479Z,32.4040
2024-02-29T11:24:34.666Z,32.4040
2024-02-29T11:25:36.954Z,32.4280
2024-02-29T11:26:39.075Z,32.4600
2024-02-29T11:27:41.201Z,32.4710
2024-02-29T11:28:43.395Z,32.4940
2024-02-29T11:29:45.589Z,32.5110
2024-02-29T11:30:47.805Z,32.5340
2024-02-29T11:31:49.959Z,32.5400
2024-02-29T11:32:52.279Z,32.5560
2024-02-29T11:33:54.505Z,32.5670
2024-02-29T11:34:54.425Z,32.5940
2024-02-29T11:35:56.631Z,32.6200
2024-02-29T11:36:58.902Z,32.6380
2024-02-29T11:38:01.084Z,32.6610
2024-02-29T11:39:03.337Z,32.6610
2024-02-29T11:40:06.464Z,32.6900
2024-02-29T11:41:07.724Z,32.7070
2024-02-29T11:42:09.946Z,32.7240
2024-02-29T11:43:12.168Z,32.7460
2024-02-29T11:44:14.305Z,32.7530
2024-02-29T11:45:16.523Z,32.7920
2024-02-29T11:46:18.878Z,32.8240
2024-02-29T11:47:20.975Z,32.8220
2024-02-29T11:48:23.205Z,32.8500
2024-02-29T11:49:23.339Z,32.8610
2024-02-29T11:50:25.542Z,32.8720
2024-02-29T11:51:27.736Z,32.8770
2024-02-29T11:52:30.037Z,32.9010
2024-02-29T11:53:32.197Z,32.9240
2024-02-29T11:54:34.469Z,32.9140
2024-02-29T11:55:36.726Z,32.9210
2024-02-29T11:56:38.964Z,32.9490
2024-02-29T11:57:41.223Z,32.9560
2024-02-29T11:58:43.423Z,32.9630
2024-02-29T11:59:45.711Z,32.9630
2024-02-29T12:00:45.854Z,33.0020
2024-02-29T12:01:48.164Z,33.0120
2024-02-29T12:02:50.292Z,33.0460
2024-02-29T12:03:52.612Z,33.0490
2024-02-29T12:04:54.757Z,33.0430
2024-02-29T12:05:57.027Z,33.0600
2024-02-29T12:06:59.298Z,33.0650
2024-02-29T12:08:01.518Z,33.0680
2024-02-29T12:09:03.702Z,33.0960
2024-02-29T12:10:05.987Z,33.0910
2024-02-29T12:11:06.018Z,33.0960
2024-02-29T12:12:08.278Z,33.1130
2024-02-29T12:13:10.563Z,33.1230
2024-02-29T12:14:12.856Z,33.1350
2024-02-29T12:15:15.133Z,33.1530
2024-02-29T12:16:17.415Z,33.1580
2024-02-29T12:17:19.640Z,33.1810
2024-02-29T12:18:21.880Z,33.2030
2024-02-29T12:19:24.144Z,33.2000
2024-02-29T12:20:24.130Z,33.2180
2024-02-29T12:21:26.344Z,33.2120
2024-02-29T12:22:28.510Z,33.2370
2024-02-29T12:23:30.565Z,33.2370
2024-02-29T12:24:32.750Z,33.2430
2024-02-29T12:25:34.986Z,33.2500
2024-02-29T12:26:37.077Z,33.2470
2024-02-29T12:27:40.954Z,33.2640
2024-02-29T12:28:41.456Z,33.2870
2024-02-29T12:29:43.632Z,33.2920
2024-02-29T12:30:45.901Z,33.3000
2024-02-29T12:31:47.984Z,33.2950
2024-02-29T12:32:50.312Z,33.2830
2024-02-29T12:33:52.476Z,33.2960
2024-02-29T12:34:54.548Z,32.5290
2024-02-29T12:35:56.784Z,32.4670